Time;durP1;ratioP1;P1;durP2;ratioP2;P2;SDS_P1;SDS_P2;PMS_P1;PMS_P2;Temp;Humidity;BMP_temperature;BMP_pressure;BME280_temperature;BME280_humidity;BME280_pressure;Samples;Min_cycle;Max_cycle;Signal;HPM_P1;HPM_P2
2021/01/21 00:00:55;;;;;;;5.45;3.13;;;8.10;90.40;;;;;;5021325;28;20026;-52
2021/01/21 00:03:20;;;;;;;4.10;2.60;;;8.10;90.40;;;;;;5022590;28;20065;-46
2021/01/21 00:05:46;;;;;;;5.32;2.90;;;8.10;90.30;;;;;;4991137;28;20038;-53
2021/01/21 00:08:11;;;;;;;3.92;2.92;;;8.00;90.50;;;;;;5002664;28;20109;-50
2021/01/21 00:10:37;;;;;;;6.10;3.35;;;8.10;90.10;;;;;;5031797;28;20442;-51
2021/01/21 00:13:03;;;;;;;4.28;2.53;;;8.10;90.20;;;;;;5026561;28;20046;-49
2021/01/21 00:15:28;;;;;;;4.90;2.83;;;8.10;90.10;;;;;;5012070;28;20029;-51
2021/01/21 00:17:54;;;;;;;2.83;2.55;;;8.10;89.90;;;;;;5013114;28;20508;-53
2021/01/21 00:20:19;;;;;;;5.43;3.13;;;8.20;89.80;;;;;;5031653;28;20096;-50
2021/01/21 00:22:45;;;;;;;3.13;2.35;;;8.20;89.70;;;;;;5031361;28;20026;-53
2021/01/21 00:25:11;;;;;;;4.22;2.70;;;8.20;89.60;;;;;;5012185;28;20030;-53
2021/01/21 00:27:36;;;;;;;3.92;3.35;;;8.20;89.50;;;;;;5011248;28;20101;-49
2021/01/21 00:30:06;;;;;;;5.22;2.53;;;8.20;88.90;;;;;;5030118;28;20108;-48
2021/01/21 00:32:32;;;;;;;3.08;2.78;;;8.30;88.90;;;;;;5031898;28;20205;-50
2021/01/21 00:34:57;;;;;;;6.93;2.88;;;8.30;88.90;;;;;;5028155;28;20037;-47
2021/01/21 00:37:23;;;;;;;4.60;2.97;;;8.30;89.20;;;;;;5030942;28;20029;-51
2021/01/21 00:39:48;;;;;;;6.40;3.17;;;8.30;89.20;;;;;;5016430;28;20036;-49
2021/01/21 00:42:14;;;;;;;3.72;2.92;;;8.30;89.00;;;;;;5011498;28;20028;-50
2021/01/21 00:44:39;;;;;;;7.82;3.10;;;8.30;89.00;;;;;;5024344;28;20052;-49
2021/01/21 00:47:04;;;;;;;4.45;2.72;;;8.30;89.50;;;;;;5031073;28;20530;-49
2021/01/21 00:49:30;;;;;;;4.13;3.00;;;8.30;89.20;;;;;;5019773;28;20038;-49
2021/01/21 00:51:55;;;;;;;5.07;3.15;;;8.30;88.50;;;;;;5011423;28;20493;-50
2021/01/21 00:54:21;;;;;;;3.78;3.03;;;8.30;87.90;;;;;;5012152;28;20068;-48
2021/01/21 00:56:46;;;;;;;3.42;2.50;;;8.50;88.30;;;;;;4996593;28;20489;-49
2021/01/21 00:59:12;;;;;;;3.08;2.67;;;8.40;88.40;;;;;;5005352;28;20096;-45
2021/01/21 01:01:37;;;;;;;5.80;2.50;;;8.50;88.50;;;;;;5011559;28;20030;-47
2021/01/21 01:04:03;;;;;;;4.65;3.03;;;8.50;88.60;;;;;;5012185;28;20049;-47
2021/01/21 01:06:28;;;;;;;3.53;2.78;;;8.50;89.30;;;;;;5012538;28;20482;-44
2021/01/21 01:08:54;;;;;;;3.58;2.70;;;8.50;88.60;;;;;;5012154;28;20026;-46
2021/01/21 01:11:19;;;;;;;6.75;3.08;;;8.50;89.40;;;;;;5012502;28;20061;-46
2021/01/21 01:13:45;;;;;;;3.60;2.40;;;8.50;88.60;;;;;;5012138;28;20025;-48
2021/01/21 01:16:11;;;;;;;9.13;2.90;;;8.50;88.80;;;;;;5012155;28;20045;-46
2021/01/21 01:18:36;;;;;;;3.83;2.60;;;8.50;87.80;;;;;;5010512;28;20105;-49
2021/01/21 01:21:02;;;;;;;4.95;2.45;;;8.60;87.20;;;;;;5012552;28;20608;-47
2021/01/21 01:23:30;;;;;;;2.63;2.35;;;8.70;86.60;;;;;;5012308;28;20030;-45
2021/01/21 01:25:56;;;;;;;4.18;2.50;;;8.70;86.00;;;;;;5012854;28;20018;-46
2021/01/21 01:28:21;;;;;;;4.43;2.67;;;8.90;85.00;;;;;;5012868;28;20370;-49
2021/01/21 01:30:47;;;;;;;2.78;2.00;;;8.90;84.40;;;;;;5012177;28;20038;-48
2021/01/21 01:33:12;;;;;;;5.43;2.20;;;9.00;84.30;;;;;;5011880;28;20507;-46
2021/01/21 01:35:38;;;;;;;2.95;2.40;;;9.10;83.30;;;;;;5011840;28;20128;-50
2021/01/21 01:38:03;;;;;;;3.92;2.33;;;9.10;84.20;;;;;;5010567;28;20121;-47
2021/01/21 01:40:29;;;;;;;3.67;2.38;;;9.10;83.20;;;;;;5011961;28;20240;-47
2021/01/21 01:42:55;;;;;;;2.83;2.10;;;9.10;83.50;;;;;;5011691;28;20030;-53
2021/01/21 01:45:21;;;;;;;3.15;2.15;;;9.10;83.80;;;;;;5011767;28;20033;-48
2021/01/21 01:47:46;;;;;;;3.35;2.45;;;9.10;83.30;;;;;;5011597;28;20389;-45
2021/01/21 01:50:14;;;;;;;6.00;2.55;;;9.10;83.30;;;;;;5011898;28;20547;-51
2021/01/21 01:52:41;;;;;;;3.58;2.50;;;9.10;83.50;;;;;;5011465;28;20452;-46
2021/01/21 01:55:16;;;;;;;4.53;3.00;;;9.10;83.00;;;;;;5011614;28;20441;-49
2021/01/21 01:57:42;;;;;;;2.40;2.20;;;9.20;83.00;;;;;;5011661;28;20022;-47
2021/01/21 02:00:09;;;;;;;2.47;2.25;;;9.20;82.60;;;;;;5011215;28;20030;-50
2021/01/21 02:02:35;;;;;;;3.55;2.63;;;9.20;82.60;;;;;;5011196;28;20393;-47
2021/01/21 02:05:01;;;;;;;4.32;2.03;;;9.20;82.20;;;;;;5010718;28;20037;-49
2021/01/21 02:07:27;;;;;;;3.42;2.00;;;9.30;81.60;;;;;;5011531;28;20021;-46
2021/01/21 02:09:55;;;;;;;1.95;1.75;;;9.30;81.70;;;;;;5010566;28;20053;-46
2021/01/21 02:12:36;;;;;;;3.92;1.90;;;9.30;81.50;;;;;;5009811;28;20033;-46
2021/01/21 02:15:24;;;;;;;2.88;2.20;;;9.30;80.60;;;;;;5010998;28;20037;-46
2021/01/21 02:18:26;;;;;;;2.85;2.10;;;9.40;80.90;;;;;;5011200;28;20420;-46
2021/01/21 02:21:09;;;;;;;2.72;2.28;;;9.40;80.30;;;;;;5011087;28;20342;-49
2021/01/21 02:24:06;;;;;;;4.60;2.15;;;9.30;81.60;;;;;;5010829;28;20485;-46
2021/01/21 02:26:40;;;;;;;;;;;9.30;82.00;;;;;;5011816;28;20126;-46
2021/01/21 02:29:10;;;;;;;2.20;2.00;;;9.30;82.50;;;;;;5010930;28;19906;-48
2021/01/21 02:31:54;;;;;;;4.55;2.88;;;9.10;82.20;;;;;;5009619;28;20029;-46
2021/01/21 02:34:33;;;;;;;9.93;2.55;;;9.20;82.00;;;;;;5010890;28;20088;-50
2021/01/21 02:37:01;;;;;;;4.05;2.10;;;9.20;82.20;;;;;;5011172;28;20501;-47
2021/01/21 02:39:29;;;;;;;2.25;2.13;;;9.10;82.50;;;;;;5010851;28;20553;-45
2021/01/21 02:41:54;;;;;;;5.32;2.63;;;9.10;82.70;;;;;;5009440;28;20079;-48
2021/01/21 02:44:20;;;;;;;4.15;2.35;;;9.20;82.80;;;;;;5010607;28;20026;-46
2021/01/21 02:46:47;;;;;;;2.33;2.08;;;9.10;82.80;;;;;;5010989;28;20397;-46
2021/01/21 02:49:13;;;;;;;3.20;2.38;;;9.10;83.00;;;;;;5010797;28;20080;-46
2021/01/21 02:51:57;;;;;;;2.25;2.00;;;9.10;82.70;;;;;;5010776;28;20033;-47
2021/01/21 02:54:53;;;;;;;2.65;2.10;;;9.10;82.20;;;;;;5010434;28;20041;-46
2021/01/21 02:57:33;;;;;;;;;;;9.10;83.00;;;;;;5011119;28;20033;-46
2021/01/21 03:00:04;;;;;;;7.35;2.40;;;9.10;82.60;;;;;;5010727;28;20008;-46
2021/01/21 03:02:34;;;;;;;3.03;2.38;;;9.10;83.00;;;;;;5010449;28;20508;-43
2021/01/21 03:05:01;;;;;;;5.38;2.50;;;9.00;82.30;;;;;;5010339;28;20026;-45
2021/01/21 03:07:27;;;;;;;3.10;2.60;;;9.00;82.80;;;;;;5010575;28;20025;-46
2021/01/21 03:09:52;;;;;;;4.82;3.22;;;9.00;82.60;;;;;;5010544;28;20037;-46
2021/01/21 03:12:26;;;;;;;3.58;2.60;;;8.90;83.20;;;;;;5010463;28;20084;-50
2021/01/21 03:14:53;;;;;;;2.95;2.10;;;8.90;83.10;;;;;;5010228;28;20038;-46
2021/01/21 03:17:21;;;;;;;3.30;2.03;;;8.90;82.80;;;;;;5010553;28;20030;-46
2021/01/21 03:19:47;;;;;;;4.93;2.60;;;8.90;82.80;;;;;;5011680;28;20097;-46
2021/01/21 03:22:12;;;;;;;3.72;2.25;;;8.90;82.70;;;;;;5013265;28;20449;-47
2021/01/21 03:24:38;;;;;;;2.70;2.20;;;8.80;82.30;;;;;;5014093;28;20484;-46
2021/01/21 03:27:03;;;;;;;4.70;2.38;;;8.80;83.00;;;;;;5014356;28;20083;-47
2021/01/21 03:29:29;;;;;;;4.05;2.05;;;8.70;83.00;;;;;;5012818;28;20036;-47
2021/01/21 03:31:55;;;;;;;5.32;2.40;;;8.70;83.10;;;;;;5014249;28;20030;-47
2021/01/21 03:34:20;;;;;;;4.97;2.15;;;8.70;83.00;;;;;;5013836;28;20045;-46
2021/01/21 03:36:46;;;;;;;2.10;1.90;;;8.70;83.00;;;;;;5014334;28;20116;-46
2021/01/21 03:39:12;;;;;;;5.00;2.53;;;8.70;82.90;;;;;;5014271;28;20172;-49
2021/01/21 03:41:37;;;;;;;4.15;2.13;;;8.70;83.20;;;;;;5014281;28;20452;-46
2021/01/21 03:44:03;;;;;;;3.40;2.22;;;8.70;83.20;;;;;;5013882;28;20026;-46
2021/01/21 03:46:29;;;;;;;6.78;2.30;;;8.80;82.60;;;;;;5013999;28;20049;-46
2021/01/21 03:48:54;;;;;;;4.40;2.30;;;8.80;82.10;;;;;;5014110;28;20072;-52
2021/01/21 03:51:20;;;;;;;2.65;2.45;;;8.80;82.30;;;;;;5013974;28;20457;-47
2021/01/21 03:53:45;;;;;;;4.88;2.17;;;8.90;81.80;;;;;;5013641;28;20022;-47
2021/01/21 03:56:11;;;;;;;3.53;2.28;;;8.90;81.80;;;;;;5014024;28;20036;-46
2021/01/21 03:58:36;;;;;;;3.53;2.13;;;9.00;81.30;;;;;;5014115;28;20033;-47
2021/01/21 04:01:02;;;;;;;3.50;2.50;;;9.00;80.70;;;;;;5013863;28;20034;-46
2021/01/21 04:03:27;;;;;;;4.50;2.00;;;9.10;80.70;;;;;;5012143;28;20014;-49
2021/01/21 04:05:53;;;;;;;3.80;2.60;;;9.20;79.70;;;;;;5012869;28;20076;-46
2021/01/21 04:08:18;;;;;;;3.03;2.20;;;9.30;80.10;;;;;;5013753;28;20037;-47
2021/01/21 04:10:44;;;;;;;3.05;2.10;;;9.30;80.00;;;;;;5012397;28;20026;-47
2021/01/21 04:13:09;;;;;;;6.57;2.38;;;9.40;79.70;;;;;;5013276;28;20033;-47
2021/01/21 04:15:35;;;;;;;4.53;2.03;;;9.40;79.80;;;;;;5013297;28;20113;-47
2021/01/21 04:18:00;;;;;;;6.30;2.80;;;9.50;79.40;;;;;;5013378;28;20105;-50
2021/01/21 04:20:26;;;;;;;3.95;2.75;;;9.50;79.60;;;;;;5013323;28;20041;-46
2021/01/21 04:22:51;;;;;;;3.40;2.08;;;9.50;79.70;;;;;;5013106;28;20030;-46
2021/01/21 04:25:17;;;;;;;3.28;1.98;;;9.50;79.70;;;;;;5013164;28;20026;-47
2021/01/21 04:27:42;;;;;;;2.33;1.80;;;9.50;79.50;;;;;;5013134;28;20044;-48
2021/01/21 04:30:08;;;;;;;6.15;2.38;;;9.50;79.90;;;;;;5011767;28;20025;-45
2021/01/21 04:32:34;;;;;;;3.53;2.20;;;9.50;79.60;;;;;;5012120;28;20069;-45
2021/01/21 04:35:00;;;;;;;2.78;2.15;;;9.50;80.00;;;;;;5012898;28;20520;-45
2021/01/21 04:37:25;;;;;;;3.88;2.83;;;9.50;80.50;;;;;;5013231;28;20058;-48
2021/01/21 04:39:50;;;;;;;3.78;2.20;;;9.50;80.60;;;;;;5012870;28;20151;-47
2021/01/21 04:42:16;;;;;;;4.13;2.50;;;9.50;80.80;;;;;;5012784;28;20472;-48
2021/01/21 04:44:41;;;;;;;3.90;2.10;;;9.50;80.70;;;;;;5011131;28;20026;-49
2021/01/21 04:47:09;;;;;;;6.57;3.08;;;9.60;80.70;;;;;;5012824;28;20022;-46
2021/01/21 04:49:39;;;;;;;3.97;2.85;;;9.50;81.10;;;;;;5013163;28;20025;-46
2021/01/21 04:52:07;;;;;;;3.72;2.30;;;9.50;81.10;;;;;;5012815;28;20397;-45
2021/01/21 04:54:42;;;;;;;4.38;3.08;;;9.50;81.30;;;;;;5012308;28;20178;-46
2021/01/21 04:57:14;;;;;;;3.38;2.50;;;9.50;82.00;;;;;;5012441;28;20084;-45
2021/01/21 04:59:41;;;;;;;3.92;2.40;;;9.50;82.60;;;;;;5012436;28;20104;-45
2021/01/21 05:02:07;;;;;;;2.80;2.42;;;9.40;82.30;;;;;;5011133;28;20033;-48
2021/01/21 05:04:34;;;;;;;2.08;1.95;;;9.40;82.70;;;;;;5011634;28;20050;-45
2021/01/21 05:07:00;;;;;;;4.85;2.65;;;9.30;83.40;;;;;;5012410;28;20077;-47
2021/01/21 05:09:29;;;;;;;2.63;2.13;;;9.30;83.50;;;;;;5012423;28;20037;-45
2021/01/21 05:11:55;;;;;;;3.60;2.47;;;9.30;83.60;;;;;;5012250;28;20026;-45
2021/01/21 05:14:21;;;;;;;3.28;2.15;;;9.30;83.80;;;;;;5010582;28;20393;-49
2021/01/21 05:16:47;;;;;;;3.33;2.35;;;9.30;84.00;;;;;;5010900;28;20022;-46
2021/01/21 05:19:14;;;;;;;4.00;2.35;;;9.20;84.30;;;;;;5010825;28;20030;-45
2021/01/21 05:21:40;;;;;;;2.85;2.33;;;9.20;84.30;;;;;;5012200;28;20037;-49
2021/01/21 05:24:07;;;;;;;3.88;2.40;;;9.20;84.40;;;;;;5011687;28;20050;-49
2021/01/21 05:26:33;;;;;;;4.65;2.83;;;9.20;84.90;;;;;;5012027;28;20026;-47
2021/01/21 05:28:59;;;;;;;2.85;2.60;;;9.20;84.70;;;;;;5012146;28;20396;-47
2021/01/21 05:31:27;;;;;;;5.75;2.63;;;9.20;85.50;;;;;;5012011;28;20036;-46
2021/01/21 05:33:55;;;;;;;3.72;2.50;;;9.20;85.10;;;;;;5010149;28;20029;-48
2021/01/21 05:36:21;;;;;;;3.15;2.10;;;9.20;85.40;;;;;;5011902;28;20026;-47
2021/01/21 05:38:57;;;;;;;4.57;2.50;;;9.20;85.50;;;;;;5010333;28;20072;-45
2021/01/21 05:41:26;;;;;;;3.33;2.22;;;9.20;85.40;;;;;;5012552;28;20280;-46
2021/01/21 05:43:52;;;;;;;4.93;2.60;;;9.20;85.70;;;;;;5012117;28;20033;-45
2021/01/21 05:46:18;;;;;;;3.85;2.28;;;9.20;86.00;;;;;;5011975;28;20029;-45
2021/01/21 05:48:44;;;;;;;3.03;2.38;;;9.20;86.00;;;;;;5011684;28;20022;-47
2021/01/21 05:51:10;;;;;;;5.13;2.42;;;9.30;86.00;;;;;;5011586;28;20034;-48
2021/01/21 05:53:38;;;;;;;9.10;2.30;;;9.30;85.80;;;;;;5011245;28;20113;-46
2021/01/21 05:56:03;;;;;;;4.93;2.13;;;9.30;85.90;;;;;;5011740;28;20034;-48
2021/01/21 05:58:31;;;;;;;5.50;2.25;;;9.30;85.90;;;;;;5011479;28;20053;-46
2021/01/21 06:00:57;;;;;;;2.50;2.10;;;9.40;85.70;;;;;;5011487;28;20037;-49
2021/01/21 06:03:24;;;;;;;3.55;2.20;;;9.50;86.20;;;;;;5011010;28;20038;-45
2021/01/21 06:05:50;;;;;;;2.05;1.85;;;9.50;85.60;;;;;;5011305;28;20022;-47
2021/01/21 06:08:21;;;;;;;3.03;1.98;;;9.50;85.50;;;;;;5011475;28;20028;-45
2021/01/21 06:10:47;;;;;;;4.82;1.95;;;9.50;85.70;;;;;;5011531;28;20030;-46
2021/01/21 06:13:14;;;;;;;4.28;2.20;;;9.60;85.80;;;;;;5011079;28;20392;-44
2021/01/21 06:15:40;;;;;;;4.25;2.47;;;9.50;85.60;;;;;;5010021;28;20405;-45
2021/01/21 06:18:06;;;;;;;3.25;2.40;;;9.60;85.40;;;;;;5011262;28;20034;-45
2021/01/21 06:20:31;;;;;;;6.35;2.60;;;9.60;86.00;;;;;;5011400;28;20030;-46
2021/01/21 06:23:02;;;;;;;8.13;2.80;;;9.50;86.00;;;;;;5009906;28;20440;-46
2021/01/21 06:25:28;;;;;;;4.03;2.60;;;9.50;85.80;;;;;;5011451;28;20037;-45
2021/01/21 06:27:55;;;;;;;3.85;2.50;;;9.50;86.40;;;;;;5011382;28;20068;-48
2021/01/21 06:30:21;;;;;;;4.00;2.33;;;9.50;86.40;;;;;;5011261;28;20504;-45
2021/01/21 06:32:49;;;;;;;6.25;2.95;;;9.50;86.50;;;;;;5011057;28;20026;-45
2021/01/21 06:35:19;;;;;;;4.22;2.55;;;9.50;86.60;;;;;;5010896;28;20448;-45
2021/01/21 06:37:49;;;;;;;3.13;2.20;;;9.50;86.60;;;;;;5010999;28;20025;-44
2021/01/21 06:40:16;;;;;;;6.85;2.92;;;9.50;86.60;;;;;;5011036;28;20497;-45
2021/01/21 06:42:54;;;;;;;2.33;1.95;;;9.50;87.30;;;;;;5010624;28;20460;-45
2021/01/21 06:45:19;;;;;;;2.80;2.42;;;9.50;87.60;;;;;;5010935;28;20033;-45
2021/01/21 06:47:46;;;;;;;3.22;2.25;;;9.40;87.90;;;;;;5010776;28;20033;-45
2021/01/21 06:50:12;;;;;;;2.25;1.98;;;9.40;88.10;;;;;;5010748;28;20033;-45
2021/01/21 06:52:39;;;;;;;3.50;2.15;;;9.40;88.10;;;;;;4993088;28;20022;-45
2021/01/21 06:55:10;;;;;;;4.53;2.15;;;9.40;88.30;;;;;;5013861;28;20029;-45
2021/01/21 06:57:35;;;;;;;4.22;2.15;;;9.50;88.40;;;;;;5015931;28;20021;-45
2021/01/21 07:00:15;;;;;;;5.22;2.33;;;9.50;88.10;;;;;;5017314;28;20037;-49
2021/01/21 07:02:48;;;;;;;2.97;2.30;;;9.50;88.20;;;;;;5017215;28;20021;-46
2021/01/21 07:05:19;;;;;;;4.45;2.05;;;9.60;88.40;;;;;;5017055;28;20029;-45
2021/01/21 07:08:00;;;;;;;4.20;1.73;;;9.60;88.90;;;;;;5017293;28;20025;-48
2021/01/21 07:10:39;;;;;;;7.00;2.17;;;9.60;88.90;;;;;;5017247;28;20033;-45
2021/01/21 07:13:07;;;;;;;2.25;1.67;;;9.60;88.20;;;;;;5017104;28;20037;-48
2021/01/21 07:15:56;;;;;;;3.53;1.67;;;9.60;88.40;;;;;;5017163;28;20030;-45
2021/01/21 07:18:28;;;;;;;3.72;1.60;;;9.60;88.60;;;;;;5017157;28;20087;-45
2021/01/21 07:20:59;;;;;;;3.40;2.00;;;9.60;88.30;;;;;;5017247;28;20503;-47
2021/01/21 07:23:38;;;;;;;4.10;2.20;;;9.70;88.30;;;;;;5017197;28;20025;-51
2021/01/21 07:26:14;;;;;;;1.60;1.50;;;9.70;88.20;;;;;;5017083;28;20026;-49
2021/01/21 07:29:13;;;;;;;4.95;1.77;;;9.70;88.40;;;;;;5018325;28;20030;-50
2021/01/21 07:31:50;;;;;;;2.58;1.65;;;9.80;87.60;;;;;;5015483;28;20045;-48
2021/01/21 07:34:44;;;;;;;2.75;1.65;;;9.80;88.30;;;;;;5016551;28;20421;-45
2021/01/21 07:37:19;;;;;;;3.80;1.73;;;9.90;88.10;;;;;;5016898;28;20481;-46
2021/01/21 07:39:49;;;;;;;2.03;1.60;;;9.90;88.10;;;;;;5017227;28;20040;-48
2021/01/21 07:42:15;;;;;;;3.80;1.90;;;9.90;87.70;;;;;;5016868;28;20101;-48
2021/01/21 07:45:13;;;;;;;2.95;1.70;;;9.90;88.80;;;;;;5016759;28;20093;-46
2021/01/21 07:47:42;;;;;;;3.03;1.80;;;9.90;88.10;;;;;;5017066;28;20097;-45
2021/01/21 07:50:16;;;;;;;3.72;1.20;;;10.00;88.70;;;;;;5017324;28;20448;-45
2021/01/21 07:52:43;;;;;;;2.15;1.92;;;10.00;89.40;;;;;;5017254;28;20065;-46
2021/01/21 07:55:10;;;;;;;2.55;1.80;;;10.00;90.00;;;;;;5017030;28;20033;-46
2021/01/21 07:57:35;;;;;;;2.15;1.23;;;10.00;90.30;;;;;;5017275;28;20034;-49
2021/01/21 08:00:06;;;;;;;1.80;1.55;;;10.00;90.40;;;;;;5016863;28;20029;-45
2021/01/21 08:02:45;;;;;;;2.00;1.42;;;10.00;90.50;;;;;;5017144;28;20072;-45
2021/01/21 08:05:11;;;;;;;1.75;1.60;;;10.00;90.70;;;;;;5016337;28;20054;-47
2021/01/21 08:07:55;;;;;;;3.60;1.63;;;10.10;91.10;;;;;;5012247;28;20022;-47
2021/01/21 08:10:30;;;;;;;3.33;1.23;;;10.10;91.10;;;;;;5013407;28;20022;-45
2021/01/21 08:12:57;;;;;;;5.43;1.67;;;10.30;91.20;;;;;;5013082;28;20391;-49
2021/01/21 08:15:24;;;;;;;2.35;1.40;;;10.30;91.00;;;;;;5013149;28;20034;-47
2021/01/21 08:17:51;;;;;;;1.30;1.20;;;10.30;91.40;;;;;;5013314;28;20041;-48
2021/01/21 08:20:18;;;;;;;1.75;1.20;;;10.30;91.80;;;;;;5013245;28;20370;-47
2021/01/21 08:23:04;;;;;;;2.20;1.23;;;10.40;91.80;;;;;;5013071;28;20463;-46
2021/01/21 08:25:41;;;;;;;1.30;1.20;;;10.30;91.80;;;;;;5013660;28;20084;-45
2021/01/21 08:28:08;;;;;;;1.52;1.42;;;10.30;92.50;;;;;;5013457;28;20022;-45
2021/01/21 08:30:34;;;;;;;1.55;1.17;;;10.10;93.10;;;;;;5012884;28;20073;-46
2021/01/21 08:33:20;;;;;;;5.68;1.13;;;10.10;93.10;;;;;;5012600;28;20477;-47
2021/01/21 08:35:59;;;;;;;2.65;2.15;;;10.00;93.70;;;;;;5012599;28;20456;-50
2021/01/21 08:38:27;;;;;;;3.03;1.35;;;10.00;94.20;;;;;;5012666;28;20374;-47
2021/01/21 08:40:54;;;;;;;2.60;1.38;;;9.90;94.60;;;;;;5012588;28;20053;-48
2021/01/21 08:43:21;;;;;;;1.63;1.48;;;9.90;94.40;;;;;;5011040;28;20375;-48
2021/01/21 08:45:47;;;;;;;1.40;1.30;;;10.00;94.20;;;;;;5012869;28;20082;-48
2021/01/21 08:48:26;;;;;;;1.67;1.20;;;10.00;93.60;;;;;;5013046;28;20034;-47
2021/01/21 08:50:52;;;;;;;2.58;1.48;;;10.00;93.50;;;;;;5012591;28;20025;-48
2021/01/21 08:53:25;;;;;;;1.85;1.52;;;10.10;93.90;;;;;;5012366;28;20028;-45
2021/01/21 08:55:56;;;;;;;1.25;1.25;;;10.10;93.70;;;;;;5012440;28;20026;-47
2021/01/21 08:58:32;;;;;;;3.67;1.60;;;10.10;93.80;;;;;;5012178;28;20112;-47
2021/01/21 09:01:16;;;;;;;1.48;1.20;;;10.10;93.60;;;;;;5012402;28;20029;-48
2021/01/21 09:03:53;;;;;;;2.22;1.30;;;10.20;93.50;;;;;;5011643;28;20117;-45
2021/01/21 09:06:20;;;;;;;3.30;1.35;;;10.30;93.50;;;;;;5012460;28;20025;-45
2021/01/21 09:08:50;;;;;;;0.95;0.95;;;10.40;93.30;;;;;;5012280;28;20022;-46
2021/01/21 09:11:38;;;;;;;1.35;1.25;;;10.50;93.40;;;;;;5012327;28;20116;-47
2021/01/21 09:14:15;;;;;;;3.55;1.20;;;10.60;93.30;;;;;;5012055;28;20036;-45
2021/01/21 09:16:54;;;;;;;4.80;1.63;;;10.50;93.60;;;;;;5011814;28;20060;-48
2021/01/21 09:19:28;;;;;;;1.77;1.67;;;10.50;93.80;;;;;;5011743;28;20509;-46
2021/01/21 09:22:04;;;;;;;2.63;1.45;;;10.50;94.20;;;;;;5011920;28;20448;-48
2021/01/21 09:24:31;;;;;;;1.60;1.40;;;10.50;93.90;;;;;;5011610;28;20033;-46
2021/01/21 09:27:17;;;;;;;1.77;1.00;;;10.50;94.30;;;;;;5012209;28;20029;-47
2021/01/21 09:29:53;;;;;;;1.35;1.25;;;10.60;94.30;;;;;;5011638;28;20033;-49
2021/01/21 09:32:20;;;;;;;1.33;1.23;;;10.50;94.50;;;;;;5011618;28;20038;-45
2021/01/21 09:35:12;;;;;;;5.80;1.80;;;10.60;95.00;;;;;;5009673;28;20034;-47
2021/01/21 09:37:40;;;;;;;5.00;1.20;;;10.60;95.20;;;;;;5011674;28;20017;-48
2021/01/21 09:40:11;;;;;;;1.20;1.10;;;10.60;95.50;;;;;;5011530;28;20025;-48
2021/01/21 09:42:36;;;;;;;3.47;1.20;;;10.70;95.60;;;;;;5011245;28;20481;-47
2021/01/21 09:45:03;;;;;;;1.60;1.10;;;10.70;95.70;;;;;;5011366;28;20137;-47
2021/01/21 09:47:29;;;;;;;2.13;1.40;;;10.70;96.00;;;;;;5011428;28;20058;-47
2021/01/21 09:49:54;;;;;;;1.65;1.10;;;10.60;96.10;;;;;;5011531;28;20722;-45
2021/01/21 09:52:20;;;;;;;1.05;1.05;;;10.70;96.30;;;;;;5016519;28;20047;-46
2021/01/21 09:54:45;;;;;;;1.23;1.10;;;10.60;96.50;;;;;;5029313;28;20396;-51
2021/01/21 09:57:11;;;;;;;3.13;1.30;;;10.70;97.10;;;;;;5031089;28;20437;-45
2021/01/21 09:59:38;;;;;;;1.50;1.40;;;10.60;97.40;;;;;;5029531;28;20029;-45
2021/01/21 10:02:04;;;;;;;1.50;1.17;;;10.60;98.50;;;;;;5031352;28;20021;-45
2021/01/21 10:04:30;;;;;;;3.53;1.63;;;10.50;99.40;;;;;;5017914;28;20026;-47
2021/01/21 10:06:55;;;;;;;1.02;0.90;;;10.40;99.90;;;;;;5011208;28;20374;-48
2021/01/21 10:09:21;;;;;;;3.42;0.90;;;10.00;99.90;;;;;;5025338;28;20118;-48
2021/01/21 10:11:47;;;;;;;0.95;0.60;;;9.60;99.90;;;;;;5030717;28;20021;-45
2021/01/21 10:14:12;;;;;;;2.85;0.73;;;9.20;99.90;;;;;;5017311;28;20026;-45
2021/01/21 10:16:38;;;;;;;1.17;0.50;;;8.90;99.90;;;;;;5009680;28;20026;-44
2021/01/21 10:19:04;;;;;;;2.83;0.73;;;8.80;99.90;;;;;;5020887;28;20068;-48
2021/01/21 10:21:30;;;;;;;0.88;0.68;;;8.80;99.90;;;;;;5030252;28;20029;-45
2021/01/21 10:23:55;;;;;;;2.05;0.52;;;8.80;99.90;;;;;;5020246;28;20026;-45
2021/01/21 10:26:21;;;;;;;1.27;0.70;;;8.70;99.90;;;;;;5010875;28;20029;-49
2021/01/21 10:28:47;;;;;;;0.90;0.60;;;8.70;99.90;;;;;;5018249;28;20048;-49
2021/01/21 10:31:13;;;;;;;2.90;1.77;;;8.60;99.90;;;;;;5029492;28;20387;-47
2021/01/21 10:33:38;;;;;;;2.38;0.70;;;8.50;99.90;;;;;;5027703;28;20112;-51
2021/01/21 10:36:05;;;;;;;0.52;0.52;;;8.50;99.90;;;;;;5030302;28;20037;-47
2021/01/21 10:38:31;;;;;;;0.60;0.60;;;8.50;99.90;;;;;;5011555;28;20060;-47
2021/01/21 10:40:57;;;;;;;0.88;0.70;;;8.60;99.90;;;;;;5010467;28;20499;-46
2021/01/21 10:43:22;;;;;;;2.35;0.70;;;8.60;99.90;;;;;;5026960;28;20029;-48
2021/01/21 10:45:48;;;;;;;0.68;0.68;;;8.60;99.90;;;;;;5030248;28;20060;-45
2021/01/21 10:48:13;;;;;;;0.60;0.60;;;8.60;99.90;;;;;;5014516;28;20380;-46
2021/01/21 10:50:39;;;;;;;0.68;0.60;;;8.70;99.90;;;;;;5010465;28;20077;-46
2021/01/21 10:53:05;;;;;;;0.60;0.60;;;8.70;99.90;;;;;;5025064;28;20025;-52
2021/01/21 10:55:30;;;;;;;0.45;0.45;;;8.80;99.90;;;;;;5030356;28;20025;-48
2021/01/21 10:57:56;;;;;;;0.82;0.70;;;8.80;99.90;;;;;;5018041;28;20062;-51
2021/01/21 11:00:21;;;;;;;1.15;0.80;;;8.80;99.90;;;;;;5011634;28;20050;-48
2021/01/21 11:02:47;;;;;;;1.98;0.60;;;8.80;99.90;;;;;;5020552;28;20087;-47
2021/01/21 11:05:14;;;;;;;1.10;0.60;;;8.90;99.90;;;;;;5028391;28;20369;-50
2021/01/21 11:07:39;;;;;;;0.57;0.57;;;8.90;99.90;;;;;;5028321;28;20356;-51
2021/01/21 11:10:06;;;;;;;2.85;0.70;;;8.90;99.90;;;;;;5029825;28;20037;-52
2021/01/21 11:12:31;;;;;;;2.92;0.55;;;8.90;99.90;;;;;;5022374;28;20225;-50
2021/01/21 11:14:57;;;;;;;0.95;0.60;;;8.90;99.90;;;;;;5022109;28;20137;-47
2021/01/21 11:17:23;;;;;;;1.30;0.73;;;8.90;99.90;;;;;;5024191;28;20025;-48
2021/01/21 11:19:49;;;;;;;0.60;0.60;;;8.90;99.90;;;;;;5010364;28;20033;-51
2021/01/21 11:22:14;;;;;;;0.88;0.60;;;8.90;99.90;;;;;;5013369;28;20014;-51
2021/01/21 11:24:40;;;;;;;0.95;0.65;;;8.90;99.90;;;;;;5016380;28;20018;-50
2021/01/21 11:27:05;;;;;;;0.60;0.60;;;8.90;99.90;;;;;;5017486;28;20048;-51
2021/01/21 11:29:31;;;;;;;1.42;0.70;;;8.90;99.90;;;;;;5029960;28;20030;-47
2021/01/21 11:31:56;;;;;;;1.25;0.75;;;9.00;99.90;;;;;;5023712;28;20030;-50
2021/01/21 11:34:22;;;;;;;0.75;0.63;;;9.00;99.90;;;;;;5016010;28;20021;-49
2021/01/21 11:36:48;;;;;;;2.45;1.25;;;9.00;99.90;;;;;;5025436;28;20064;-47
2021/01/21 11:39:13;;;;;;;1.92;0.40;;;9.00;99.90;;;;;;5010324;28;20060;-53
2021/01/21 11:41:39;;;;;;;1.10;0.52;;;9.10;99.90;;;;;;5014870;28;20092;-46
2021/01/21 11:44:06;;;;;;;0.60;0.60;;;9.00;99.90;;;;;;5033505;28;20331;-48
2021/01/21 11:46:31;;;;;;;0.30;0.30;;;9.10;99.90;;;;;;5031053;28;20120;-50
2021/01/21 11:48:57;;;;;;;0.63;0.50;;;9.10;99.90;;;;;;5014034;28;20110;-47
2021/01/21 11:51:22;;;;;;;0.50;0.50;;;9.10;99.90;;;;;;5013864;28;20037;-49
2021/01/21 11:53:48;;;;;;;1.02;0.60;;;9.00;98.20;;;;;;5032166;28;20532;-51
2021/01/21 11:56:13;;;;;;;3.13;0.60;;;9.10;97.80;;;;;;5033595;28;20087;-48
2021/01/21 11:58:39;;;;;;;1.05;0.40;;;9.00;97.90;;;;;;5031489;28;20033;-50
2021/01/21 12:01:04;;;;;;;0.40;0.40;;;9.00;97.90;;;;;;5033389;28;20033;-46
2021/01/21 12:03:30;;;;;;;0.63;0.50;;;9.00;97.80;;;;;;5017251;28;20041;-47
2021/01/21 12:05:55;;;;;;;0.73;0.50;;;9.10;98.00;;;;;;5013350;28;20025;-47
2021/01/21 12:08:21;;;;;;;0.73;0.73;;;9.10;97.40;;;;;;5021373;28;20437;-48
2021/01/21 12:10:48;;;;;;;1.75;0.50;;;9.10;97.50;;;;;;5024593;28;20030;-48
2021/01/21 12:13:14;;;;;;;0.40;0.40;;;9.10;97.40;;;;;;5013427;28;20370;-46
2021/01/21 12:15:40;;;;;;;0.75;0.50;;;9.10;97.70;;;;;;5013191;28;20026;-47
2021/01/21 12:18:06;;;;;;;3.35;0.80;;;9.20;97.80;;;;;;5023233;28;20030;-50
2021/01/21 12:20:31;;;;;;;0.70;0.65;;;9.20;98.00;;;;;;5013336;28;20076;-48
2021/01/21 12:22:57;;;;;;;0.60;0.60;;;9.20;97.70;;;;;;5012848;28;20485;-46
2021/01/21 12:25:22;;;;;;;2.03;0.55;;;9.20;97.40;;;;;;5013224;28;20029;-47
2021/01/21 12:27:48;;;;;;;2.13;0.60;;;9.20;97.10;;;;;;5013062;28;20029;-47
2021/01/21 12:30:14;;;;;;;1.45;0.40;;;9.30;97.20;;;;;;5013184;28;20299;-46
2021/01/21 12:32:39;;;;;;;0.60;0.60;;;9.30;96.90;;;;;;5013034;28;20026;-46
2021/01/21 12:35:07;;;;;;;1.02;0.93;;;9.30;97.10;;;;;;5019787;28;20384;-47
2021/01/21 12:37:32;;;;;;;1.65;0.60;;;9.30;97.20;;;;;;5031764;28;20021;-49
2021/01/21 12:39:58;;;;;;;0.60;0.60;;;9.30;97.10;;;;;;5030916;28;20504;-46
2021/01/21 12:42:23;;;;;;;3.78;0.60;;;9.30;97.00;;;;;;5032236;28;20028;-45
2021/01/21 12:44:49;;;;;;;4.10;0.65;;;9.30;96.40;;;;;;5032442;28;20092;-46
2021/01/21 12:47:14;;;;;;;1.10;0.50;;;9.30;96.00;;;;;;5032483;28;20029;-45
2021/01/21 12:49:40;;;;;;;1.40;0.82;;;9.30;96.40;;;;;;5032635;28;20022;-48
2021/01/21 12:52:05;;;;;;;2.75;0.57;;;9.30;96.90;;;;;;5032009;28;20021;-45
2021/01/21 12:54:31;;;;;;;3.05;1.23;;;9.20;97.00;;;;;;5032049;28;20446;-47
2021/01/21 12:56:56;;;;;;;1.40;0.88;;;9.30;96.80;;;;;;5032350;28;20480;-45
2021/01/21 12:59:22;;;;;;;2.50;1.00;;;9.30;96.10;;;;;;5032340;28;20088;-45
2021/01/21 13:01:47;;;;;;;1.95;0.98;;;9.30;96.50;;;;;;5032349;28;20100;-45